Gulf Bridge — A8JM5 — position and weather

sailwx.info

Track history (hours):
 
Tides and Currents Weather Stations Pressure Air Temp Water Temp Dewpoint Dewpoint Depression Visibility Wind Speed Wind Dir Waves Ship Positions

Gulf Bridge

Last reported at 2018-Apr-19 20:58 UTC. Time now 2018-Apr-19 21:10 UTC.
Position N 34°55' E 136°43'.

Length 213 m; beam 32.2 m; draft 11.5 m.

Type: Cargo ship. MMSI: 636017628.

Date/timePositionNaut miles runAvg speedWind from/ knotsBaromVisibWave heightAir tempDewpointWater temp
2018-Apr-19 20:58N 34°55' E 136°43'0 0.0
2018-Apr-19 20:19N 34°55' E 136°43'0 0.1
2018-Apr-19 19:49N 34°55' E 136°43'0 0.1
2018-Apr-19 19:25N 34°55' E 136°43'0 0.1
2018-Apr-19 18:58N 34°55' E 136°43'0 0.1
2018-Apr-19 18:25N 34°55' E 136°43'0 0.1
2018-Apr-19 18:01N 34°55' E 136°43'0 0.0
2018-Apr-19 17:25N 34°55' E 136°43'0 0.0
2018-Apr-19 16:55N 34°55' E 136°43'0 0.0
2018-Apr-19 16:25N 34°55' E 136°43'0 0.1
2018-Apr-19 15:55N 34°55' E 136°43'1 2.2
2018-Apr-19 15:30N 34°54' E 136°43'713.6
2018-Apr-19 15:00N 34°47' E 136°44'917.9
2018-Apr-19 14:30N 34°40' E 136°51'917.3
2018-Apr-19 14:01N 34°35' E 136°59'711.9
2018-Apr-19 13:26N 34°31' E 137°06'4 7.8
2018-Apr-19 12:58N 34°29' E 137°10'4 8.4
2018-Apr-19 12:30N 34°27' E 137°14'4 8.0
2018-Apr-19 12:00N 34°28' E 137°19'4 8.0
2018-Apr-19 11:30N 34°28' E 137°23'4 8.1
2018-Apr-19 11:01N 34°28' E 137°28'4 8.2
2018-Apr-19 10:31N 34°29' E 137°33'4 8.4
2018-Apr-19 10:00N 34°29' E 137°38'4 8.4
2018-Apr-19 09:30N 34°30' E 137°43'4 8.4
2018-Apr-19 08:58N 34°31' E 137°49'4 8.4
2018-Apr-19 08:30N 34°31' E 137°54'5 8.4
2018-Apr-19 07:58N 34°32' E 137°59'4 8.1
2018-Apr-19 07:30N 34°32' E 138°03'4 8.0
2018-Apr-19 07:00N 34°33' E 138°08'4 8.2
2018-Apr-19 06:29N 34°33' E 138°13'4 7.5
2018-Apr-19 05:59N 34°35' E 138°18'4 8.2
2018-Apr-19 05:28N 34°38' E 138°15'1 3.2
2018-Apr-19 05:00N 34°38' E 138°14'0 0.1
2018-Apr-19 02:43N 34°38' E 138°13'0 0.0
2018-Apr-19 02:13N 34°38' E 138°13'0 0.0
2018-Apr-19 01:49N 34°38' E 138°13'0 0.0
2018-Apr-18 22:07N 34°38' E 138°13'0 0.1
2018-Apr-18 22:00N 34°38' E 138°13'2 3.7
2018-Apr-18 21:30N 34°39' E 138°15'3 5.9
2018-Apr-18 21:00N 34°38' E 138°18'4 8.1
2018-Apr-18 20:30N 34°37' E 138°23'5 8.9
2018-Apr-18 20:00N 34°36' E 138°28'510.1
2018-Apr-18 19:29N 34°35' E 138°34'510.0
2018-Apr-18 19:00N 34°34' E 138°40'510.1
2018-Apr-18 18:29N 34°34' E 138°47'510.6
2018-Apr-18 18:00N 34°33' E 138°53'510.4
2018-Apr-18 17:30N 34°33' E 138°59'510.2
2018-Apr-18 16:58N 34°37' E 139°03'510.2
2018-Apr-18 16:30N 34°41' E 139°07'510.5
2018-Apr-18 16:00N 34°45' E 139°11'610.4
2018-Apr-18 15:25N 34°50' E 139°15'4 9.7
2018-Apr-18 15:00N 34°53' E 139°19'510.1
2018-Apr-18 14:28N 34°56' E 139°24'4 9.7
2018-Apr-18 14:00N 34°58' E 139°29'5 9.1
2018-Apr-18 13:30N 35°01' E 139°33'5 9.5
2018-Apr-18 13:00N 35°04' E 139°38'5 9.8
2018-Apr-18 12:30N 35°06' E 139°43'5 9.9
2018-Apr-18 12:00N 35°11' E 139°45'510.8
2018-Apr-18 11:31N 35°16' E 139°45'612.1
2018-Apr-18 11:00N 35°22' E 139°42'510.2
2018-Apr-18 10:31N 35°27' E 139°41'0 0.9
2018-Apr-18 10:00N 35°26' E 139°41'0 0.0
2018-Apr-18 09:30N 35°26' E 139°41'0 0.0
2018-Apr-18 09:00N 35°26' E 139°41'0 0.0
2018-Apr-18 08:30N 35°26' E 139°41'0 0.0
2018-Apr-18 08:00N 35°26' E 139°41'0 0.0
2018-Apr-18 07:30N 35°26' E 139°41'0 0.0
2018-Apr-18 07:00N 35°26' E 139°41'0 0.0
2018-Apr-18 06:30N 35°26' E 139°41'0 0.0
2018-Apr-18 06:00N 35°26' E 139°41'0 0.0
2018-Apr-18 05:30N 35°26' E 139°41'0 0.0
2018-Apr-18 05:00N 35°26' E 139°41'0 0.0
2018-Apr-18 04:30N 35°26' E 139°41'0 0.0
2018-Apr-18 04:00N 35°26' E 139°41'0 0.0
2018-Apr-18 03:30N 35°26' E 139°41'0 0.0
2018-Apr-18 03:00N 35°26' E 139°41'0 0.0
2018-Apr-18 02:30N 35°26' E 139°41'0 0.0
2018-Apr-18 02:00N 35°26' E 139°41'0 0.0
2018-Apr-18 01:30N 35°26' E 139°41'0 0.0
2018-Apr-18 01:00N 35°26' E 139°41'0 0.0
2018-Apr-18 00:30N 35°26' E 139°41'0 0.0
2018-Apr-18 00:00N 35°26' E 139°41'0 0.0
2018-Apr-17 23:30N 35°26' E 139°41'0 0.0
2018-Apr-17 23:00N 35°26' E 139°41'1 1.5
2018-Apr-17 22:30N 35°27' E 139°42'2 5.0
2018-Apr-17 22:00N 35°26' E 139°45'612.2
2018-Apr-17 21:30N 35°30' E 139°51'611.2
2018-Apr-17 21:00N 35°35' E 139°48'2 3.2
2018-Apr-17 20:28N 35°36' E 139°47'0 0.1
2018-Apr-17 19:55N 35°36' E 139°47'0 0.1
2018-Apr-17 19:28N 35°36' E 139°47'0 0.0
2018-Apr-17 18:55N 35°36' E 139°47'0 0.0
2018-Apr-17 18:22N 35°36' E 139°47'0 0.0
2018-Apr-17 17:46N 35°36' E 139°47'0 0.2
2018-Apr-17 17:28N 35°36' E 139°47'0 0.0
2018-Apr-17 16:55N 35°36' E 139°47'0 0.0
2018-Apr-17 16:28N 35°36' E 139°47'0 0.0
2018-Apr-17 15:55N 35°36' E 139°47'0 0.0
2018-Apr-17 15:25N 35°36' E 139°47'0 0.1
2018-Apr-17 14:55N 35°36' E 139°47'0 0.1
2018-Apr-17 14:28N 35°36' E 139°47'0 0.1
2018-Apr-17 13:58N 35°36' E 139°47'0 0.1
2018-Apr-17 13:28N 35°36' E 139°47'0 0.1
2018-Apr-17 12:52N 35°36' E 139°47'0 0.1
2018-Apr-17 12:28N 35°36' E 139°47'0 0.0
2018-Apr-17 11:58N 35°36' E 139°47'0 0.1
2018-Apr-17 11:28N 35°36' E 139°47'0 0.0
2018-Apr-17 10:55N 35°36' E 139°47'0 0.1
2018-Apr-17 10:28N 35°36' E 139°47'0 0.1
2018-Apr-17 10:00N 35°36' E 139°47'1 1.5
2018-Apr-17 09:30N 35°36' E 139°47'3 6.6
2018-Apr-17 09:00N 35°34' E 139°50'1 1.7
2018-Apr-17 08:28N 35°34' E 139°51'0 0.2
2018-Apr-17 07:58N 35°34' E 139°51'0 0.0
2018-Apr-17 07:28N 35°34' E 139°51'0 0.0
2018-Apr-17 06:58N 35°34' E 139°51'0 0.0
2018-Apr-17 06:25N 35°34' E 139°51'0 0.0
2018-Apr-17 05:58N 35°34' E 139°51'0 0.1
2018-Apr-17 05:28N 35°34' E 139°51'0 0.0
2018-Apr-17 04:58N 35°34' E 139°51'0 0.0
2018-Apr-17 04:22N 35°34' E 139°51'0 0.0
2018-Apr-17 03:58N 35°34' E 139°51'0 0.0
2018-Apr-17 03:28N 35°34' E 139°51'0 0.0
2018-Apr-17 02:58N 35°34' E 139°51'0 0.0
2018-Apr-17 02:28N 35°34' E 139°51'0 0.1
2018-Apr-17 01:58N 35°34' E 139°51'0 0.0
2018-Apr-17 01:28N 35°34' E 139°51'0 0.0
2018-Apr-17 00:58N 35°34' E 139°51'0 0.0
2018-Apr-17 00:28N 35°34' E 139°51'0 0.0
2018-Apr-16 23:58N 35°34' E 139°51'0 0.0
2018-Apr-16 23:28N 35°34' E 139°51'0 0.0
2018-Apr-16 22:58N 35°34' E 139°51'0 0.0
2018-Apr-16 22:28N 35°34' E 139°51'0 0.0
2018-Apr-16 21:58N 35°34' E 139°51'0 0.0
2018-Apr-16 21:28N 35°34' E 139°51'0 0.1
2018-Apr-16 20:58N 35°34' E 139°51'0 0.0
2018-Apr-16 20:28N 35°34' E 139°51'0 0.0
2018-Apr-16 19:58N 35°34' E 139°51'0 0.0
2018-Apr-16 19:28N 35°34' E 139°51'0 0.0
2018-Apr-16 18:58N 35°34' E 139°51'0 0.0
2018-Apr-16 18:28N 35°34' E 139°51'0 0.0
2018-Apr-16 17:58N 35°34' E 139°51'0 0.1
2018-Apr-16 17:28N 35°34' E 139°51'0 0.0
2018-Apr-16 16:58N 35°34' E 139°51'0 0.0
2018-Apr-16 16:28N 35°34' E 139°51'0 0.0
2018-Apr-16 15:58N 35°34' E 139°51'0 0.0
2018-Apr-16 15:28N 35°34' E 139°51'0 0.0
2018-Apr-16 14:58N 35°34' E 139°51'0 0.0
2018-Apr-16 14:28N 35°34' E 139°51'0 0.0
2018-Apr-16 13:58N 35°34' E 139°51'0 0.0
2018-Apr-16 13:28N 35°34' E 139°51'0 0.0
2018-Apr-16 12:58N 35°34' E 139°51'0 0.0
2018-Apr-16 12:28N 35°34' E 139°51'0 0.0
2018-Apr-16 11:58N 35°34' E 139°51'0 0.0
2018-Apr-16 11:28N 35°34' E 139°51'0 0.0
2018-Apr-16 10:58N 35°34' E 139°51'0 0.1
2018-Apr-16 10:28N 35°34' E 139°51'0 0.0
2018-Apr-16 09:58N 35°34' E 139°51'0 0.3
2018-Apr-16 09:30N 35°34' E 139°51'3 6.1
2018-Apr-16 09:00N 35°31' E 139°52'611.9
2018-Apr-16 08:30N 35°26' E 139°48'612.9
2018-Apr-16 08:00N 35°20' E 139°44'612.0
2018-Apr-16 07:30N 35°15' E 139°47'611.4
2018-Apr-16 07:00N 35°09' E 139°46'714.1
2018-Apr-16 06:30N 35°03' E 139°43'918.2
2018-Apr-16 06:00N 34°55' E 139°37'918.1
2018-Apr-16 05:31N 34°46' E 139°35'917.8
2018-Apr-16 05:01N 34°37' E 139°32'918.3
2018-Apr-16 04:30N 34°28' E 139°29'1818.2
2018-Apr-16 03:32N 34°13' E 139°19'118.8
2018-Apr-16 03:27N 34°12' E 139°18'817.8
2018-Apr-16 03:00N 34°05' E 139°12'  
Track history (hours):
 
Tides and Currents Weather Stations Pressure Air Temp Water Temp Dewpoint Dewpoint Depression Visibility Wind Speed Wind Dir Waves Ship Positions

Gulf Bridge

Last reported at 2018-Apr-19 20:58 UTC. Time now 2018-Apr-19 21:10 UTC.
Position N 34°55' E 136°43'.

Length 213 m; beam 32.2 m; draft 11.5 m.

Type: Cargo ship. MMSI: 636017628.

Date/timePositionNaut miles runAvg speedWind from/ knotsBaromVisibWave heightAir tempDewpointWater temp
2018-Apr-19 20:58N 34°55' E 136°43'0 0.0
2018-Apr-19 20:19N 34°55' E 136°43'0 0.1
2018-Apr-19 19:49N 34°55' E 136°43'0 0.1
2018-Apr-19 19:25N 34°55' E 136°43'0 0.1
2018-Apr-19 18:58N 34°55' E 136°43'0 0.1
2018-Apr-19 18:25N 34°55' E 136°43'0 0.1
2018-Apr-19 18:01N 34°55' E 136°43'0 0.0
2018-Apr-19 17:25N 34°55' E 136°43'0 0.0
2018-Apr-19 16:55N 34°55' E 136°43'0 0.0
2018-Apr-19 16:25N 34°55' E 136°43'0 0.1
2018-Apr-19 15:55N 34°55' E 136°43'1 2.2
2018-Apr-19 15:30N 34°54' E 136°43'713.6
2018-Apr-19 15:00N 34°47' E 136°44'917.9
2018-Apr-19 14:30N 34°40' E 136°51'917.3
2018-Apr-19 14:01N 34°35' E 136°59'711.9
2018-Apr-19 13:26N 34°31' E 137°06'4 7.8
2018-Apr-19 12:58N 34°29' E 137°10'4 8.4
2018-Apr-19 12:30N 34°27' E 137°14'4 8.0
2018-Apr-19 12:00N 34°28' E 137°19'4 8.0
2018-Apr-19 11:30N 34°28' E 137°23'4 8.1
2018-Apr-19 11:01N 34°28' E 137°28'4 8.2
2018-Apr-19 10:31N 34°29' E 137°33'4 8.4
2018-Apr-19 10:00N 34°29' E 137°38'4 8.4
2018-Apr-19 09:30N 34°30' E 137°43'4 8.4
2018-Apr-19 08:58N 34°31' E 137°49'4 8.4
2018-Apr-19 08:30N 34°31' E 137°54'5 8.4
2018-Apr-19 07:58N 34°32' E 137°59'4 8.1
2018-Apr-19 07:30N 34°32' E 138°03'4 8.0
2018-Apr-19 07:00N 34°33' E 138°08'4 8.2
2018-Apr-19 06:29N 34°33' E 138°13'4 7.5
2018-Apr-19 05:59N 34°35' E 138°18'4 8.2
2018-Apr-19 05:28N 34°38' E 138°15'1 3.2
2018-Apr-19 05:00N 34°38' E 138°14'0 0.1
2018-Apr-19 02:43N 34°38' E 138°13'0 0.0
2018-Apr-19 02:13N 34°38' E 138°13'0 0.0
2018-Apr-19 01:49N 34°38' E 138°13'0 0.0
2018-Apr-18 22:07N 34°38' E 138°13'0 0.1
2018-Apr-18 22:00N 34°38' E 138°13'2 3.7
2018-Apr-18 21:30N 34°39' E 138°15'3 5.9
2018-Apr-18 21:00N 34°38' E 138°18'4 8.1
2018-Apr-18 20:30N 34°37' E 138°23'5 8.9
2018-Apr-18 20:00N 34°36' E 138°28'510.1
2018-Apr-18 19:29N 34°35' E 138°34'510.0
2018-Apr-18 19:00N 34°34' E 138°40'510.1
2018-Apr-18 18:29N 34°34' E 138°47'510.6
2018-Apr-18 18:00N 34°33' E 138°53'510.4
2018-Apr-18 17:30N 34°33' E 138°59'510.2
2018-Apr-18 16:58N 34°37' E 139°03'510.2
2018-Apr-18 16:30N 34°41' E 139°07'510.5
2018-Apr-18 16:00N 34°45' E 139°11'610.4
2018-Apr-18 15:25N 34°50' E 139°15'4 9.7
2018-Apr-18 15:00N 34°53' E 139°19'510.1
2018-Apr-18 14:28N 34°56' E 139°24'4 9.7
2018-Apr-18 14:00N 34°58' E 139°29'5 9.1
2018-Apr-18 13:30N 35°01' E 139°33'5 9.5
2018-Apr-18 13:00N 35°04' E 139°38'5 9.8
2018-Apr-18 12:30N 35°06' E 139°43'5 9.9
2018-Apr-18 12:00N 35°11' E 139°45'510.8
2018-Apr-18 11:31N 35°16' E 139°45'612.1
2018-Apr-18 11:00N 35°22' E 139°42'510.2
2018-Apr-18 10:31N 35°27' E 139°41'0 0.9
2018-Apr-18 10:00N 35°26' E 139°41'0 0.0
2018-Apr-18 09:30N 35°26' E 139°41'0 0.0
2018-Apr-18 09:00N 35°26' E 139°41'0 0.0
2018-Apr-18 08:30N 35°26' E 139°41'0 0.0
2018-Apr-18 08:00N 35°26' E 139°41'0 0.0
2018-Apr-18 07:30N 35°26' E 139°41'0 0.0
2018-Apr-18 07:00N 35°26' E 139°41'0 0.0
2018-Apr-18 06:30N 35°26' E 139°41'0 0.0
2018-Apr-18 06:00N 35°26' E 139°41'0 0.0
2018-Apr-18 05:30N 35°26' E 139°41'0 0.0
2018-Apr-18 05:00N 35°26' E 139°41'0 0.0
2018-Apr-18 04:30N 35°26' E 139°41'0 0.0
2018-Apr-18 04:00N 35°26' E 139°41'0 0.0
2018-Apr-18 03:30N 35°26' E 139°41'0 0.0
2018-Apr-18 03:00N 35°26' E 139°41'0 0.0
2018-Apr-18 02:30N 35°26' E 139°41'0 0.0
2018-Apr-18 02:00N 35°26' E 139°41'0 0.0
2018-Apr-18 01:30N 35°26' E 139°41'0 0.0
2018-Apr-18 01:00N 35°26' E 139°41'0 0.0
2018-Apr-18 00:30N 35°26' E 139°41'0 0.0
2018-Apr-18 00:00N 35°26' E 139°41'0 0.0
2018-Apr-17 23:30N 35°26' E 139°41'0 0.0
2018-Apr-17 23:00N 35°26' E 139°41'1 1.5
2018-Apr-17 22:30N 35°27' E 139°42'2 5.0
2018-Apr-17 22:00N 35°26' E 139°45'612.2
2018-Apr-17 21:30N 35°30' E 139°51'611.2
2018-Apr-17 21:00N 35°35' E 139°48'2 3.2
2018-Apr-17 20:28N 35°36' E 139°47'0 0.1
2018-Apr-17 19:55N 35°36' E 139°47'0 0.1
2018-Apr-17 19:28N 35°36' E 139°47'0 0.0
2018-Apr-17 18:55N 35°36' E 139°47'0 0.0
2018-Apr-17 18:22N 35°36' E 139°47'0 0.0
2018-Apr-17 17:46N 35°36' E 139°47'0 0.2
2018-Apr-17 17:28N 35°36' E 139°47'0 0.0
2018-Apr-17 16:55N 35°36' E 139°47'0 0.0
2018-Apr-17 16:28N 35°36' E 139°47'0 0.0
2018-Apr-17 15:55N 35°36' E 139°47'0 0.0
2018-Apr-17 15:25N 35°36' E 139°47'0 0.1
2018-Apr-17 14:55N 35°36' E 139°47'0 0.1
2018-Apr-17 14:28N 35°36' E 139°47'0 0.1
2018-Apr-17 13:58N 35°36' E 139°47'0 0.1
2018-Apr-17 13:28N 35°36' E 139°47'0 0.1
2018-Apr-17 12:52N 35°36' E 139°47'0 0.1
2018-Apr-17 12:28N 35°36' E 139°47'0 0.0
2018-Apr-17 11:58N 35°36' E 139°47'0 0.1
2018-Apr-17 11:28N 35°36' E 139°47'0 0.0
2018-Apr-17 10:55N 35°36' E 139°47'0 0.1
2018-Apr-17 10:28N 35°36' E 139°47'0 0.1
2018-Apr-17 10:00N 35°36' E 139°47'1 1.5
2018-Apr-17 09:30N 35°36' E 139°47'3 6.6
2018-Apr-17 09:00N 35°34' E 139°50'1 1.7
2018-Apr-17 08:28N 35°34' E 139°51'0 0.2
2018-Apr-17 07:58N 35°34' E 139°51'0 0.0
2018-Apr-17 07:28N 35°34' E 139°51'0 0.0
2018-Apr-17 06:58N 35°34' E 139°51'0 0.0
2018-Apr-17 06:25N 35°34' E 139°51'0 0.0
2018-Apr-17 05:58N 35°34' E 139°51'0 0.1
2018-Apr-17 05:28N 35°34' E 139°51'0 0.0
2018-Apr-17 04:58N 35°34' E 139°51'0 0.0
2018-Apr-17 04:22N 35°34' E 139°51'0 0.0
2018-Apr-17 03:58N 35°34' E 139°51'0 0.0
2018-Apr-17 03:28N 35°34' E 139°51'0 0.0
2018-Apr-17 02:58N 35°34' E 139°51'0 0.0
2018-Apr-17 02:28N 35°34' E 139°51'0 0.1
2018-Apr-17 01:58N 35°34' E 139°51'0 0.0
2018-Apr-17 01:28N 35°34' E 139°51'0 0.0
2018-Apr-17 00:58N 35°34' E 139°51'0 0.0
2018-Apr-17 00:28N 35°34' E 139°51'0 0.0
2018-Apr-16 23:58N 35°34' E 139°51'0 0.0
2018-Apr-16 23:28N 35°34' E 139°51'0 0.0
2018-Apr-16 22:58N 35°34' E 139°51'0 0.0
2018-Apr-16 22:28N 35°34' E 139°51'0 0.0
2018-Apr-16 21:58N 35°34' E 139°51'0 0.0
2018-Apr-16 21:28N 35°34' E 139°51'0 0.1
2018-Apr-16 20:58N 35°34' E 139°51'0 0.0
2018-Apr-16 20:28N 35°34' E 139°51'0 0.0
2018-Apr-16 19:58N 35°34' E 139°51'0 0.0
2018-Apr-16 19:28N 35°34' E 139°51'0 0.0
2018-Apr-16 18:58N 35°34' E 139°51'0 0.0
2018-Apr-16 18:28N 35°34' E 139°51'0 0.0
2018-Apr-16 17:58N 35°34' E 139°51'0 0.1
2018-Apr-16 17:28N 35°34' E 139°51'0 0.0
2018-Apr-16 16:58N 35°34' E 139°51'0 0.0
2018-Apr-16 16:28N 35°34' E 139°51'0 0.0
2018-Apr-16 15:58N 35°34' E 139°51'0 0.0
2018-Apr-16 15:28N 35°34' E 139°51'0 0.0
2018-Apr-16 14:58N 35°34' E 139°51'0 0.0
2018-Apr-16 14:28N 35°34' E 139°51'0 0.0
2018-Apr-16 13:58N 35°34' E 139°51'0 0.0
2018-Apr-16 13:28N 35°34' E 139°51'0 0.0
2018-Apr-16 12:58N 35°34' E 139°51'0 0.0
2018-Apr-16 12:28N 35°34' E 139°51'0 0.0
2018-Apr-16 11:58N 35°34' E 139°51'0 0.0
2018-Apr-16 11:28N 35°34' E 139°51'0 0.0
2018-Apr-16 10:58N 35°34' E 139°51'0 0.1
2018-Apr-16 10:28N 35°34' E 139°51'0 0.0
2018-Apr-16 09:58N 35°34' E 139°51'0 0.3
2018-Apr-16 09:30N 35°34' E 139°51'3 6.1
2018-Apr-16 09:00N 35°31' E 139°52'611.9
2018-Apr-16 08:30N 35°26' E 139°48'612.9
2018-Apr-16 08:00N 35°20' E 139°44'612.0
2018-Apr-16 07:30N 35°15' E 139°47'611.4
2018-Apr-16 07:00N 35°09' E 139°46'714.1
2018-Apr-16 06:30N 35°03' E 139°43'918.2
2018-Apr-16 06:00N 34°55' E 139°37'918.1
2018-Apr-16 05:31N 34°46' E 139°35'917.8
2018-Apr-16 05:01N 34°37' E 139°32'918.3
2018-Apr-16 04:30N 34°28' E 139°29'1818.2
2018-Apr-16 03:32N 34°13' E 139°19'118.8
2018-Apr-16 03:27N 34°12' E 139°18'817.8
2018-Apr-16 03:00N 34°05' E 139°12'  

Dump ship's entire track history